createdAt,value
2019-02-24T00:00:52.995Z,1
2019-02-24T00:01:52.983Z,1
2019-02-24T00:02:52.972Z,1
2019-02-24T00:03:54.686Z,1
2019-02-24T00:04:52.946Z,1
2019-02-24T00:05:52.940Z,1
2019-02-24T00:06:52.929Z,1
2019-02-24T00:07:52.917Z,1
2019-02-24T00:08:52.906Z,1
2019-02-24T00:09:52.893Z,1
2019-02-24T00:10:52.885Z,1
2019-02-24T00:11:52.882Z,1
2019-02-24T00:16:52.819Z,1
2019-02-24T00:17:52.807Z,1
2019-02-24T00:18:52.800Z,1
2019-02-24T00:19:52.789Z,1
2019-02-24T00:20:52.775Z,1
2019-02-24T00:21:52.765Z,1
2019-02-24T00:39:52.971Z,1
2019-02-24T00:48:52.472Z,1
2019-02-24T00:49:52.461Z,1
2019-02-24T00:50:52.453Z,1
2019-02-24T00:51:52.442Z,1
2019-02-24T00:52:52.434Z,1
2019-02-24T00:53:52.418Z,1
2019-02-24T00:54:52.411Z,1
2019-02-24T00:55:52.397Z,1
2019-02-24T00:56:52.390Z,1
2019-02-24T00:57:52.376Z,1
2019-02-24T00:58:52.366Z,1
2019-02-24T00:59:52.355Z,1
2019-02-24T01:00:52.346Z,1
2019-02-24T01:01:52.333Z,1
2019-02-24T01:02:52.372Z,1
2019-02-24T01:03:52.311Z,1
2019-02-24T01:04:52.301Z,1
2019-02-24T01:05:52.291Z,1
2019-02-24T01:06:52.276Z,1
2019-02-24T01:07:52.266Z,1
2019-02-24T01:08:52.257Z,1
2019-02-24T01:09:52.348Z,1
2019-02-24T01:10:52.235Z,1
2019-02-24T01:11:52.223Z,1
2019-02-24T01:12:52.214Z,1
2019-02-24T01:13:53.977Z,1
2019-02-24T01:14:52.191Z,1
2019-02-24T01:15:52.181Z,1
2019-02-24T01:16:52.179Z,1
2019-02-24T01:17:52.159Z,1
2019-02-24T01:18:52.146Z,1
2019-02-24T01:19:52.134Z,1
2019-02-24T01:20:52.126Z,1
2019-02-24T01:21:52.118Z,1
2019-02-24T01:22:52.106Z,1
2019-02-24T01:23:52.095Z,1
2019-02-24T01:24:52.085Z,1
2019-02-24T01:25:52.072Z,1
2019-02-24T01:26:52.059Z,1
2019-02-24T01:27:52.052Z,1
2019-02-24T01:28:52.041Z,1
2019-02-24T01:29:52.030Z,1
2019-02-24T01:31:52.005Z,1
2019-02-24T01:33:51.986Z,1
2019-02-24T01:34:51.980Z,1
2019-02-24T01:35:52.066Z,1
2019-02-24T01:44:51.870Z,8.
2019-02-24T01:45:51.858Z,8.
2019-02-24T01:47:51.837Z,7.
2019-02-24T01:48:51.826Z,7.
2019-02-24T01:49:51.816Z,8.
2019-02-24T01:50:51.803Z,9.
2019-02-24T01:51:51.793Z,10.
2019-02-24T01:52:51.779Z,10.
2019-02-24T01:53:51.771Z,10.
2019-02-24T01:54:51.761Z,10.
2019-02-24T01:55:51.751Z,11.
2019-02-24T01:56:51.737Z,11.
2019-02-24T01:57:51.729Z,11.
2019-02-24T01:58:51.716Z,13.
2019-02-24T01:59:51.707Z,14.
2019-02-24T02:00:51.702Z,14.
2019-02-24T02:01:51.685Z,13.
2019-02-24T02:02:51.676Z,12.
2019-02-24T02:03:51.667Z,14.
2019-02-24T02:04:51.651Z,13.
2019-02-24T02:05:51.643Z,13.
2019-02-24T02:06:51.633Z,13.69
2019-02-24T02:07:51.618Z,14.19
2019-02-24T02:08:51.612Z,14.80
2019-02-24T02:09:51.597Z,17.89
2019-02-24T02:10:51.588Z,18.60
2019-02-24T02:11:51.580Z,19.20
2019-02-24T02:12:51.569Z,20.29
2019-02-24T02:13:51.699Z,20.50
2019-02-24T02:14:51.549Z,18.00
2019-02-24T02:15:51.535Z,20.50
2019-02-24T02:16:51.524Z,22.20
2019-02-24T02:17:51.516Z,23.20
2019-02-24T02:18:51.503Z,19.20
2019-02-24T02:19:51.494Z,20.10
2019-02-24T02:20:51.480Z,20.29
2019-02-24T02:21:51.469Z,22.29
2019-02-24T02:22:51.460Z,23.29
2019-02-24T02:23:51.446Z,23.10
2019-02-24T02:24:51.437Z,23.10
2019-02-24T02:25:51.425Z,22.10
2019-02-24T02:26:51.413Z,21.00
2019-02-24T02:27:51.405Z,20.70
2019-02-24T02:28:51.401Z,18.70
2019-02-24T02:29:51.386Z,17.70
2019-02-24T02:30:51.374Z,21.89
2019-02-24T02:31:51.365Z,21.20
2019-02-24T02:32:51.356Z,22.89
2019-02-24T02:33:51.341Z,24.50
2019-02-24T02:34:51.330Z,22.79
2019-02-24T02:35:51.422Z,23.20
2019-02-24T02:36:51.412Z,24.29
2019-02-24T02:37:51.298Z,26.20
2019-02-24T02:38:51.289Z,24.89
2019-02-24T02:39:51.276Z,23.20
2019-02-24T02:40:51.266Z,22.29
2019-02-24T02:41:51.258Z,21.60
2019-02-24T02:42:51.244Z,18.79
2019-02-24T02:43:51.234Z,16.60
2019-02-24T02:44:51.223Z,16.79
2019-02-24T02:45:51.209Z,17.60
2019-02-24T02:46:51.207Z,17.20
2019-02-24T02:47:51.206Z,16.70
2019-02-24T02:48:51.178Z,17.00
2019-02-24T02:49:51.167Z,16.60
2019-02-24T02:50:51.156Z,18.10
2019-02-24T02:51:51.148Z,19.79
2019-02-24T02:52:51.138Z,17.79
2019-02-24T02:53:51.126Z,17.29
2019-02-24T02:54:51.115Z,17.70
2019-02-24T02:55:51.101Z,18.89
2019-02-24T02:56:51.097Z,18.60
2019-02-24T02:57:51.185Z,18.29
2019-02-24T02:58:54.352Z,19.60
2019-02-24T02:59:51.162Z,19.20
2019-02-24T03:00:51.050Z,19.39
2019-02-24T03:01:51.039Z,18.29
2019-02-24T03:02:51.028Z,20.10
2019-02-24T03:03:51.017Z,21.60
2019-02-24T03:04:51.007Z,19.60
2019-02-24T03:05:50.993Z,22.89
2019-02-24T03:06:50.987Z,20.00
2019-02-24T03:07:50.973Z,22.70
2019-02-24T03:08:50.964Z,20.39
2019-02-24T03:09:50.953Z,18.89
2019-02-24T03:10:50.944Z,18.39
2019-02-24T03:11:51.031Z,19.70
2019-02-24T03:12:50.923Z,18.39
2019-02-24T03:13:50.918Z,17.50
2019-02-24T03:14:50.899Z,21.29
2019-02-24T03:15:50.888Z,20.10
2019-02-24T03:16:50.930Z,19.00
2019-02-24T03:17:50.865Z,20.60
2019-02-24T03:18:50.855Z,19.89
2019-02-24T03:19:50.845Z,19.89
2019-02-24T03:20:50.833Z,20.10
2019-02-24T03:21:50.823Z,19.39
2019-02-24T03:22:50.817Z,19.89
2019-02-24T03:23:50.805Z,19.89
2019-02-24T03:24:50.792Z,20.70
2019-02-24T03:25:50.779Z,20.39
2019-02-24T03:26:50.768Z,21.70
2019-02-24T03:27:50.760Z,21.39
2019-02-24T03:28:50.748Z,21.79
2019-02-24T03:29:50.739Z,28.10
2019-02-24T03:30:50.788Z,21.60
2019-02-24T03:31:50.719Z,19.10
2019-02-24T03:32:50.706Z,19.50
2019-02-24T03:33:50.695Z,19.60
2019-02-24T03:34:50.680Z,19.79
2019-02-24T03:35:50.672Z,20.50
2019-02-24T03:36:50.961Z,21.50
2019-02-24T03:37:50.653Z,21.29
2019-02-24T03:38:50.640Z,21.10
2019-02-24T03:39:50.632Z,25.39
2019-02-24T03:40:50.617Z,23.39
2019-02-24T03:41:50.605Z,22.60
2019-02-24T03:42:50.600Z,23.00
2019-02-24T03:43:50.582Z,22.70
2019-02-24T03:44:50.624Z,20.00
2019-02-24T03:45:50.563Z,26.29
2019-02-24T03:46:50.564Z,26.79
2019-02-24T03:47:50.545Z,26.29
2019-02-24T03:48:50.530Z,25.60
2019-02-24T03:49:50.521Z,24.50
2019-02-24T03:50:50.546Z,24.70
2019-02-24T03:51:50.498Z,24.60
2019-02-24T03:52:50.489Z,24.70
2019-02-24T03:53:50.475Z,27.70
2019-02-24T03:54:50.473Z,26.70
2019-02-24T03:55:50.460Z,28.00
2019-02-24T03:56:50.442Z,27.39
2019-02-24T03:57:50.431Z,24.50
2019-02-24T03:58:50.420Z,23.39
2019-02-24T03:59:50.423Z,22.89
2019-02-24T04:00:50.397Z,23.20
2019-02-24T04:01:50.394Z,23.39
2019-02-24T04:02:50.382Z,23.50
2019-02-24T04:03:50.369Z,23.89
2019-02-24T04:04:50.353Z,26.00
2019-02-24T04:05:50.345Z,24.89
2019-02-24T04:06:50.333Z,26.20
2019-02-24T04:07:50.323Z,26.39
2019-02-24T04:08:50.308Z,29.29
2019-02-24T04:09:50.298Z,31.20
2019-02-24T04:10:50.294Z,33.00
2019-02-24T04:11:50.275Z,31.79
2019-02-24T04:12:50.266Z,31.70
2019-02-24T04:13:50.253Z,30.89
2019-02-24T04:14:50.246Z,31.89
2019-02-24T04:15:50.233Z,32.79
2019-02-24T04:16:50.228Z,33.59
2019-02-24T04:17:50.210Z,34.59
2019-02-24T04:18:50.207Z,36.70
2019-02-24T04:19:50.189Z,35.29
2019-02-24T04:20:50.177Z,31.89
2019-02-24T04:21:50.166Z,28.10
2019-02-24T04:22:50.156Z,29.00
2019-02-24T04:23:50.145Z,30.29
2019-02-24T04:24:50.142Z,29.29
2019-02-24T04:25:50.131Z,27.50
2019-02-24T04:26:50.114Z,28.29
2019-02-24T04:27:50.109Z,27.50
2019-02-24T04:28:50.093Z,28.79
2019-02-24T04:29:50.081Z,28.29
2019-02-24T04:30:50.078Z,27.70
2019-02-24T04:31:50.160Z,29.29
2019-02-24T04:32:50.053Z,29.00
2019-02-24T04:33:50.043Z,29.10
2019-02-24T04:34:50.026Z,27.20
2019-02-24T04:35:50.027Z,27.20
2019-02-24T04:36:50.008Z,28.60
2019-02-24T04:37:50.102Z,29.70
2019-02-24T04:38:49.988Z,33.90
2019-02-24T04:39:49.979Z,31.39
2019-02-24T04:40:49.969Z,31.20
2019-02-24T04:41:49.956Z,32.00
2019-02-24T04:42:49.942Z,27.29
2019-02-24T04:43:49.933Z,24.00
2019-02-24T04:44:49.920Z,24.00
2019-02-24T04:45:49.913Z,26.20
2019-02-24T04:46:49.906Z,25.39
2019-02-24T04:47:49.890Z,25.10
2019-02-24T04:48:49.881Z,23.79
2019-02-24T04:49:49.870Z,23.50
2019-02-24T04:50:49.859Z,25.50
2019-02-24T04:51:49.851Z,27.00
2019-02-24T04:52:49.841Z,30.29
2019-02-24T04:53:49.831Z,23.20
2019-02-24T04:54:49.818Z,20.60
2019-02-24T04:55:49.808Z,21.10
2019-02-24T04:56:49.800Z,19.20
2019-02-24T04:57:49.785Z,20.39
2019-02-24T04:58:49.778Z,19.50
2019-02-24T04:59:49.763Z,21.60
2019-02-24T05:00:49.752Z,21.29
2019-02-24T05:01:49.746Z,21.79
2019-02-24T05:02:49.732Z,22.89
2019-02-24T05:03:49.721Z,22.79
2019-02-24T05:04:49.716Z,22.79
2019-02-24T05:05:49.700Z,24.89
2019-02-24T05:06:49.688Z,24.10
2019-02-24T05:07:49.693Z,24.79
2019-02-24T05:08:49.671Z,26.10
2019-02-24T05:09:49.654Z,27.00
2019-02-24T05:10:49.643Z,26.79
2019-02-24T05:11:49.634Z,28.29
2019-02-24T05:12:49.622Z,26.89
2019-02-24T05:13:49.615Z,27.70
2019-02-24T05:14:49.602Z,27.00
2019-02-24T05:15:49.596Z,25.79
2019-02-24T05:16:49.584Z,25.10
2019-02-24T05:17:49.575Z,24.20
2019-02-24T05:18:49.574Z,25.50
2019-02-24T05:19:49.558Z,27.50
2019-02-24T05:20:49.537Z,26.20
2019-02-24T05:21:49.527Z,26.50
2019-02-24T05:22:49.514Z,29.60
2019-02-24T05:23:49.506Z,27.50
2019-02-24T05:24:49.493Z,27.70
2019-02-24T05:25:49.484Z,25.20
2019-02-24T05:26:49.477Z,26.70
2019-02-24T05:27:49.472Z,26.00
2019-02-24T05:28:49.451Z,25.89
2019-02-24T05:29:49.449Z,25.70
2019-02-24T05:30:49.434Z,26.29
2019-02-24T05:31:49.417Z,26.29
2019-02-24T05:32:49.662Z,25.39
2019-02-24T05:33:49.404Z,25.50
2019-02-24T05:34:49.400Z,25.10
2019-02-24T05:35:49.375Z,25.20
2019-02-24T05:36:49.370Z,24.89
2019-02-24T05:37:49.353Z,25.29
2019-02-24T05:38:49.350Z,25.79
2019-02-24T05:39:49.334Z,26.10
2019-02-24T05:40:49.323Z,24.60
2019-02-24T05:41:49.311Z,25.00
2019-02-24T05:42:49.298Z,25.50
2019-02-24T05:43:49.293Z,25.00
2019-02-24T05:44:49.276Z,25.29
2019-02-24T05:45:49.267Z,25.70
2019-02-24T05:46:49.261Z,25.00
2019-02-24T05:47:49.253Z,24.89
2019-02-24T05:48:49.238Z,26.10
2019-02-24T05:49:49.225Z,25.70
2019-02-24T05:50:49.212Z,26.00
2019-02-24T05:51:49.207Z,26.10
2019-02-24T05:52:49.195Z,24.39
2019-02-24T05:53:49.178Z,24.89
2019-02-24T05:54:49.169Z,24.89
2019-02-24T05:55:49.158Z,24.70
2019-02-24T05:56:49.151Z,26.10
2019-02-24T05:57:49.136Z,25.39
2019-02-24T05:58:49.132Z,25.20
2019-02-24T05:59:55.367Z,25.39
2019-02-24T06:00:50.209Z,26.20
2019-02-24T06:01:49.095Z,25.70
2019-02-24T06:02:49.091Z,26.00
2019-02-24T06:03:49.072Z,25.00
2019-02-24T06:04:49.066Z,26.00
2019-02-24T06:05:49.053Z,24.89
2019-02-24T06:06:49.039Z,26.20
2019-02-24T06:07:49.028Z,25.00
2019-02-24T06:08:49.016Z,25.10
2019-02-24T06:09:49.036Z,25.39
2019-02-24T06:10:48.999Z,28.10
2019-02-24T06:11:48.986Z,27.89
2019-02-24T06:12:48.976Z,31.50
2019-02-24T06:13:48.964Z,32.79
2019-02-24T06:14:48.957Z,36.79
2019-02-24T06:15:48.950Z,34.59
2019-02-24T06:16:48.943Z,33.20
2019-02-24T06:17:48.922Z,31.79
2019-02-24T06:18:48.916Z,34.59
2019-02-24T06:19:48.902Z,39.79
2019-02-24T06:20:48.909Z,45.50
2019-02-24T06:21:48.884Z,47.59
2019-02-24T06:22:48.877Z,47.90
2019-02-24T06:23:48.858Z,50.00
2019-02-24T06:24:48.850Z,51.59
2019-02-24T06:25:48.837Z,53.20
2019-02-24T06:26:48.825Z,49.09
2019-02-24T06:27:48.812Z,45.59
2019-02-24T06:28:48.805Z,44.20
2019-02-24T06:29:48.794Z,43.59
2019-02-24T06:30:48.784Z,44.59
2019-02-24T06:31:48.797Z,53.20
2019-02-24T06:32:48.762Z,50.59
2019-02-24T06:33:49.058Z,51.90
2019-02-24T06:34:48.744Z,55.00
2019-02-24T06:35:48.730Z,57.70
2019-02-24T06:36:48.714Z,63.79
2019-02-24T06:37:48.709Z,60.90
2019-02-24T06:38:48.697Z,69.59
2019-02-24T06:39:48.685Z,69.69
2019-02-24T06:40:48.674Z,71.19
2019-02-24T06:41:48.663Z,71.59
2019-02-24T06:42:48.649Z,73.30
2019-02-24T06:43:48.644Z,71.19
2019-02-24T06:44:48.629Z,69.80
2019-02-24T06:45:48.618Z,69.00
2019-02-24T06:46:48.605Z,70.90
2019-02-24T06:47:48.598Z,71.50
2019-02-24T06:48:48.587Z,71.00
2019-02-24T06:49:48.575Z,69.69
2019-02-24T06:50:48.566Z,70.50
2019-02-24T06:51:48.551Z,70.69
2019-02-24T06:52:48.540Z,66.00
2019-02-24T06:53:48.534Z,66.19
2019-02-24T06:54:48.518Z,64.00
2019-02-24T06:55:48.507Z,62.00
2019-02-24T06:56:48.507Z,58.90
2019-02-24T06:57:48.491Z,57.59
2019-02-24T06:58:48.472Z,56.29
2019-02-24T06:59:48.465Z,57.29
2019-02-24T07:00:48.456Z,55.50
2019-02-24T07:01:48.440Z,55.29
2019-02-24T07:02:48.432Z,55.90
2019-02-24T07:03:48.418Z,54.20
2019-02-24T07:04:48.407Z,52.00
2019-02-24T07:05:48.399Z,51.00
2019-02-24T07:06:48.386Z,48.90
2019-02-24T07:07:48.376Z,50.70
2019-02-24T07:08:48.367Z,49.59
2019-02-24T07:09:48.452Z,53.20
2019-02-24T07:10:48.340Z,53.20
2019-02-24T07:11:48.342Z,53.40
2019-02-24T07:12:48.326Z,57.40
2019-02-24T07:13:48.318Z,55.29
2019-02-24T07:14:48.304Z,56.29
2019-02-24T07:15:48.287Z,54.20
2019-02-24T07:16:48.277Z,52.59
2019-02-24T07:17:48.264Z,53.50
2019-02-24T07:18:48.253Z,57.00
2019-02-24T07:19:48.240Z,54.00
2019-02-24T07:20:48.230Z,53.70
2019-02-24T07:21:48.224Z,52.59
2019-02-24T07:22:48.212Z,52.20
2019-02-24T07:23:48.201Z,53.20
2019-02-24T07:24:48.187Z,51.20
2019-02-24T07:25:48.176Z,52.50
2019-02-24T07:26:48.165Z,51.90
2019-02-24T07:27:48.151Z,52.59
2019-02-24T07:28:48.152Z,50.50
2019-02-24T07:29:48.132Z,50.29
2019-02-24T07:30:48.120Z,49.09
2019-02-24T07:31:48.110Z,47.09
2019-02-24T07:32:48.199Z,46.90
2019-02-24T07:33:48.094Z,47.09
2019-02-24T07:34:48.180Z,46.29
2019-02-24T07:35:48.171Z,47.20
2019-02-24T07:36:48.055Z,46.09
2019-02-24T07:37:48.055Z,45.50
2019-02-24T07:38:48.182Z,46.09
2019-02-24T07:39:48.021Z,45.40
2019-02-24T07:40:48.010Z,44.29
2019-02-24T07:41:47.998Z,44.70
2019-02-24T07:42:47.987Z,45.20
2019-02-24T07:43:47.977Z,45.09
2019-02-24T07:44:47.965Z,44.59
2019-02-24T07:45:47.953Z,43.90
2019-02-24T07:46:47.942Z,44.20
2019-02-24T07:47:47.930Z,44.79
2019-02-24T07:48:47.922Z,42.00
2019-02-24T07:49:47.913Z,39.90
2019-02-24T07:50:47.899Z,42.50
2019-02-24T07:51:47.887Z,42.50
2019-02-24T07:52:47.876Z,41.90
2019-02-24T07:53:47.867Z,40.09
2019-02-24T07:54:47.852Z,41.20
2019-02-24T07:55:47.845Z,38.79
2019-02-24T07:56:47.837Z,39.29
2019-02-24T07:57:47.821Z,39.29
2019-02-24T07:58:47.811Z,39.20
2019-02-24T07:59:47.798Z,38.20
2019-02-24T08:00:47.786Z,38.50
2019-02-24T08:01:47.777Z,37.59
2019-02-24T08:02:47.765Z,34.09
2019-02-24T08:03:47.758Z,33.09
2019-02-24T08:04:47.743Z,33.09
2019-02-24T08:05:47.733Z,34.29
2019-02-24T08:06:47.720Z,35.20
2019-02-24T08:07:47.712Z,33.90
2019-02-24T08:08:47.704Z,32.29
2019-02-24T08:09:47.689Z,31.20
2019-02-24T08:10:47.683Z,33.09
2019-02-24T08:11:47.668Z,30.70
2019-02-24T08:12:47.656Z,30.00
2019-02-24T08:13:47.644Z,30.50
2019-02-24T08:14:47.634Z,29.10
2019-02-24T08:15:47.624Z,29.70
2019-02-24T08:16:47.614Z,29.60
2019-02-24T08:17:47.602Z,28.70
2019-02-24T08:18:49.906Z,29.39
2019-02-24T08:19:47.582Z,28.20
2019-02-24T08:20:47.585Z,27.70
2019-02-24T08:21:47.560Z,27.79
2019-02-24T08:22:47.546Z,28.70
2019-02-24T08:23:47.539Z,29.70
2019-02-24T08:24:47.528Z,29.70
2019-02-24T08:25:47.514Z,29.29
2019-02-24T08:26:47.507Z,27.50
2019-02-24T08:27:47.494Z,28.29
2019-02-24T08:28:47.484Z,28.60
2019-02-24T08:29:47.471Z,29.29
2019-02-24T08:30:47.468Z,28.29
2019-02-24T08:31:47.447Z,26.89
2019-02-24T08:32:47.439Z,26.10
2019-02-24T08:33:47.581Z,26.79
2019-02-24T08:34:47.416Z,28.39
2019-02-24T08:35:47.614Z,28.79
2019-02-24T08:36:47.397Z,28.39
2019-02-24T08:37:47.387Z,34.90
2019-02-24T08:38:47.372Z,29.29
2019-02-24T08:39:47.363Z,27.29
2019-02-24T08:40:47.354Z,26.20
2019-02-24T08:41:47.342Z,23.20
2019-02-24T08:42:47.333Z,19.60
2019-02-24T08:43:47.321Z,20.29
2019-02-24T08:44:47.362Z,19.39
2019-02-24T08:45:47.300Z,20.10
2019-02-24T08:46:47.290Z,19.50
2019-02-24T08:47:47.280Z,19.29
2019-02-24T08:48:47.267Z,18.60
2019-02-24T08:49:47.256Z,18.60
2019-02-24T08:50:47.245Z,14.89
2019-02-24T08:51:47.232Z,13.19
2019-02-24T08:52:47.226Z,10.60
2019-02-24T08:53:47.218Z,10.00
2019-02-24T08:54:47.204Z,10.39
2019-02-24T08:55:47.194Z,12.00
2019-02-24T08:56:47.186Z,14.10
2019-02-24T08:57:47.271Z,14.69
2019-02-24T08:58:47.164Z,15.19
2019-02-24T08:59:47.253Z,14.30
2019-02-24T09:00:50.896Z,13.60
2019-02-24T09:01:47.125Z,12.69
2019-02-24T09:02:47.118Z,11.10
2019-02-24T09:03:47.104Z,8.00
2019-02-24T09:04:47.094Z,7.19
2019-02-24T09:05:47.083Z,8.00
2019-02-24T09:06:47.086Z,6.80
2019-02-24T09:07:47.070Z,8.00
2019-02-24T09:08:47.055Z,7.40
2019-02-24T09:09:47.041Z,8.00
2019-02-24T09:10:47.034Z,8.50
2019-02-24T09:11:47.029Z,9.10
2019-02-24T09:12:47.019Z,10.10
2019-02-24T09:13:46.998Z,11.10
2019-02-24T09:14:46.989Z,11.89
2019-02-24T09:15:46.977Z,12.00
2019-02-24T09:16:46.963Z,11.80
2019-02-24T09:17:46.954Z,11.89
2019-02-24T09:18:46.954Z,11.39
2019-02-24T09:19:46.936Z,9.80
2019-02-24T09:20:46.923Z,10.60
2019-02-24T09:21:46.921Z,9.60
2019-02-24T09:22:46.900Z,9.80
2019-02-24T09:23:46.896Z,9.69
2019-02-24T09:24:46.886Z,9.30
2019-02-24T09:25:46.866Z,8.80
2019-02-24T09:26:46.861Z,9.19
2019-02-24T09:27:46.842Z,9.30
2019-02-24T09:28:46.832Z,9.69
2019-02-24T09:29:46.829Z,8.89
2019-02-24T09:30:46.815Z,9.19
2019-02-24T09:31:46.802Z,9.00
2019-02-24T09:32:46.792Z,9.69
2019-02-24T09:33:46.781Z,9.89
2019-02-24T09:34:46.929Z,10.60
2019-02-24T09:35:46.758Z,10.39
2019-02-24T09:36:46.752Z,9.69
2019-02-24T09:37:46.737Z,9.39
2019-02-24T09:38:46.722Z,9.30
2019-02-24T09:39:46.713Z,8.00
2019-02-24T09:40:46.699Z,8.30
2019-02-24T09:41:46.690Z,8.30
2019-02-24T09:42:46.685Z,9.00
2019-02-24T09:43:46.670Z,9.30
2019-02-24T09:44:46.656Z,9.50
2019-02-24T09:45:46.645Z,10.10
2019-02-24T09:46:46.644Z,10.50
2019-02-24T09:47:47.300Z,11.69
2019-02-24T09:48:46.611Z,11.80
2019-02-24T09:49:46.612Z,11.60
2019-02-24T09:50:46.597Z,11.60
2019-02-24T09:51:46.582Z,11.89
2019-02-24T09:52:46.576Z,13.00
2019-02-24T09:53:46.557Z,13.50
2019-02-24T09:54:46.548Z,14.19
2019-02-24T09:55:46.537Z,14.00
2019-02-24T09:56:46.522Z,13.80
2019-02-24T09:57:46.516Z,13.89
2019-02-24T09:58:46.509Z,15.19
2019-02-24T09:59:46.490Z,14.80
2019-02-24T10:00:46.482Z,13.50
2019-02-24T10:01:46.473Z,13.60
2019-02-24T10:02:46.470Z,13.39
2019-02-24T10:03:46.455Z,12.39
2019-02-24T10:04:46.442Z,12.39
2019-02-24T10:05:46.435Z,12.60
2019-02-24T10:06:46.418Z,13.89
2019-02-24T10:07:46.405Z,14.30
2019-02-24T10:08:46.394Z,14.10
2019-02-24T10:09:46.382Z,14.89
2019-02-24T10:10:46.376Z,13.39
2019-02-24T10:11:46.363Z,13.69
2019-02-24T10:12:46.359Z,12.10
2019-02-24T10:13:46.337Z,11.80
2019-02-24T10:14:46.331Z,10.89
2019-02-24T10:15:46.316Z,12.50
2019-02-24T10:16:46.308Z,11.00
2019-02-24T10:17:46.303Z,9.89
2019-02-24T10:18:46.289Z,10.39
2019-02-24T10:19:46.274Z,10.50
2019-02-24T10:20:46.265Z,10.00
2019-02-24T10:21:46.248Z,10.60
2019-02-24T10:22:46.237Z,10.60
2019-02-24T10:23:46.227Z,12.00
2019-02-24T10:24:46.319Z,11.80
2019-02-24T10:25:46.210Z,12.60
2019-02-24T10:26:46.199Z,13.50
2019-02-24T10:27:46.186Z,14.60
2019-02-24T10:28:47.678Z,14.89
2019-02-24T10:29:46.162Z,14.69
2019-02-24T10:30:46.157Z,13.89
2019-02-24T10:31:46.146Z,14.69
2019-02-24T10:32:46.132Z,13.19
2019-02-24T10:33:46.117Z,12.60
2019-02-24T10:34:46.108Z,11.80
2019-02-24T10:35:46.209Z,11.10
2019-02-24T10:36:46.090Z,10.50
2019-02-24T10:37:46.078Z,10.39
2019-02-24T10:38:46.067Z,10.60
2019-02-24T10:39:46.053Z,10.19
2019-02-24T10:40:46.040Z,10.50
2019-02-24T10:41:46.033Z,10.60
2019-02-24T10:42:46.032Z,10.39
2019-02-24T10:43:46.017Z,10.00
2019-02-24T10:44:46.010Z,9.39
2019-02-24T10:45:45.992Z,9.39
2019-02-24T10:46:45.980Z,9.30
2019-02-24T10:47:45.972Z,9.80
2019-02-24T10:48:45.955Z,9.60
2019-02-24T10:49:45.945Z,8.50
2019-02-24T10:50:45.933Z,6.69
2019-02-24T10:51:45.923Z,6.19
2019-02-24T10:52:45.915Z,6.40
2019-02-24T10:53:45.903Z,6.69
2019-02-24T10:54:45.895Z,7.40
2019-02-24T10:55:45.878Z,7.90
2019-02-24T10:56:45.871Z,8.89
2019-02-24T10:57:45.860Z,8.50
2019-02-24T10:58:45.847Z,8.69
2019-02-24T10:59:45.840Z,9.10
2019-02-24T11:00:45.836Z,9.30
2019-02-24T11:01:45.825Z,8.39
2019-02-24T11:02:45.824Z,8.39
2019-02-24T11:03:45.805Z,8.60
2019-02-24T11:04:45.788Z,8.89
2019-02-24T11:05:45.776Z,9.69
2019-02-24T11:06:45.767Z,9.00
2019-02-24T11:07:45.755Z,7.80
2019-02-24T11:08:45.744Z,7.09
2019-02-24T11:09:45.739Z,7.69
2019-02-24T11:10:45.723Z,8.30
2019-02-24T11:11:45.718Z,8.60
2019-02-24T11:12:45.703Z,9.39
2019-02-24T11:13:45.708Z,9.60
2019-02-24T11:14:45.680Z,9.10
2019-02-24T11:15:45.676Z,9.69
2019-02-24T11:16:45.663Z,9.80
2019-02-24T11:17:45.654Z,8.50
2019-02-24T11:18:45.638Z,8.50
2019-02-24T11:19:45.629Z,8.00
2019-02-24T11:20:45.619Z,8.19
2019-02-24T11:21:45.608Z,8.39
2019-02-24T11:22:45.600Z,8.69
2019-02-24T11:23:45.587Z,8.89
2019-02-24T11:24:45.577Z,8.50
2019-02-24T11:25:45.568Z,9.10
2019-02-24T11:26:45.555Z,9.10
2019-02-24T11:27:45.543Z,9.39
2019-02-24T11:28:45.534Z,9.60
2019-02-24T11:29:45.521Z,9.50
2019-02-24T11:30:45.510Z,10.19
2019-02-24T11:31:45.498Z,10.10
2019-02-24T11:32:45.492Z,9.89
2019-02-24T11:33:45.481Z,9.19
2019-02-24T11:34:45.464Z,8.80
2019-02-24T11:35:45.464Z,10.39
2019-02-24T11:36:45.847Z,10.80
2019-02-24T11:37:45.432Z,11.60
2019-02-24T11:38:45.422Z,11.80
2019-02-24T11:39:45.409Z,12.10
2019-02-24T11:40:45.400Z,12.50
2019-02-24T11:41:45.399Z,11.10
2019-02-24T11:42:45.381Z,11.30
2019-02-24T11:43:45.366Z,11.39
2019-02-24T11:44:45.363Z,10.89
2019-02-24T11:45:45.345Z,10.80
2019-02-24T11:46:45.339Z,11.10
2019-02-24T11:47:45.325Z,11.30
2019-02-24T11:48:45.318Z,10.80
2019-02-24T11:49:45.303Z,10.60
2019-02-24T11:50:45.296Z,9.69
2019-02-24T11:51:45.280Z,10.60
2019-02-24T11:52:45.266Z,10.39
2019-02-24T11:53:45.256Z,10.80
2019-02-24T11:54:45.247Z,11.10
2019-02-24T11:55:45.241Z,11.80
2019-02-24T11:56:45.224Z,11.19
2019-02-24T11:57:45.213Z,12.10
2019-02-24T11:58:45.202Z,11.89
2019-02-24T11:59:45.191Z,14.10
2019-02-24T12:00:45.184Z,17.20
2019-02-24T12:01:47.505Z,17.20
2019-02-24T12:02:45.168Z,16.50
2019-02-24T12:03:45.150Z,18.20
2019-02-24T12:04:45.140Z,17.70
2019-02-24T12:05:45.170Z,15.80
2019-02-24T12:06:45.115Z,15.50
2019-02-24T12:07:45.105Z,16.39
2019-02-24T12:08:45.092Z,15.10
2019-02-24T12:09:45.084Z,15.89
2019-02-24T12:10:45.073Z,15.69
2019-02-24T12:11:45.060Z,13.10
2019-02-24T12:12:45.059Z,13.89
2019-02-24T12:13:45.038Z,14.69
2019-02-24T12:14:45.026Z,14.60
2019-02-24T12:15:45.026Z,14.89
2019-02-24T12:16:45.011Z,14.10
2019-02-24T12:17:45.000Z,14.00
2019-02-24T12:18:44.987Z,13.50
2019-02-24T12:19:44.977Z,13.19
2019-02-24T12:20:44.966Z,12.39
2019-02-24T12:21:44.957Z,13.30
2019-02-24T12:22:44.945Z,13.69
2019-02-24T12:23:44.938Z,12.89
2019-02-24T12:24:44.925Z,14.80
2019-02-24T12:25:44.913Z,14.89
2019-02-24T12:26:44.900Z,13.60
2019-02-24T12:27:44.889Z,12.19
2019-02-24T12:28:44.878Z,12.80
2019-02-24T12:29:44.870Z,12.39
2019-02-24T12:30:44.857Z,13.00
2019-02-24T12:31:44.846Z,12.30
2019-02-24T12:32:44.837Z,13.00
2019-02-24T12:33:44.822Z,13.19
2019-02-24T12:34:44.813Z,14.00
2019-02-24T12:35:44.802Z,13.10
2019-02-24T12:36:44.790Z,13.00
2019-02-24T12:37:44.881Z,12.39
2019-02-24T12:38:44.769Z,13.00
2019-02-24T12:39:44.756Z,14.80
2019-02-24T12:40:44.751Z,14.60
2019-02-24T12:41:44.737Z,12.69
2019-02-24T12:42:44.724Z,12.60
2019-02-24T12:43:44.717Z,12.89
2019-02-24T12:44:44.704Z,12.89
2019-02-24T12:45:44.691Z,12.00
2019-02-24T12:46:44.683Z,12.10
2019-02-24T12:47:44.670Z,12.89
2019-02-24T12:48:44.664Z,12.69
2019-02-24T12:49:44.651Z,12.80
2019-02-24T12:50:44.638Z,13.60
2019-02-24T12:51:44.627Z,13.10
2019-02-24T12:52:44.616Z,14.50
2019-02-24T12:53:44.607Z,15.00
2019-02-24T12:54:44.593Z,15.39
2019-02-24T12:55:44.585Z,14.39
2019-02-24T12:56:44.571Z,16.39
2019-02-24T12:57:44.570Z,16.29
2019-02-24T12:58:44.550Z,16.00
2019-02-24T12:59:44.540Z,14.89
2019-02-24T13:00:44.531Z,15.60
2019-02-24T13:01:44.520Z,14.89
2019-02-24T13:02:44.517Z,14.69
2019-02-24T13:03:44.499Z,16.00
2019-02-24T13:04:44.490Z,15.50
2019-02-24T13:05:44.478Z,16.50
2019-02-24T13:06:44.465Z,15.50
2019-02-24T13:07:44.456Z,16.
2019-02-24T13:08:44.443Z,14.
2019-02-24T13:09:44.784Z,15.
2019-02-24T13:10:44.424Z,16.
2019-02-24T13:11:44.415Z,19.
2019-02-24T13:12:44.409Z,20.
2019-02-24T13:13:44.394Z,20.
2019-02-24T13:14:44.379Z,20.
2019-02-24T13:15:44.368Z,16.
2019-02-24T13:16:44.366Z,16.
2019-02-24T13:17:44.353Z,18.
2019-02-24T13:18:44.336Z,19.
2019-02-24T13:19:44.324Z,16.
2019-02-24T13:20:44.315Z,14.
2019-02-24T13:21:44.309Z,15.
2019-02-24T13:22:44.293Z,17.
2019-02-24T13:23:44.280Z,18.
2019-02-24T13:24:44.275Z,18.
2019-02-24T13:25:44.261Z,20.
2019-02-24T13:26:44.256Z,20.
2019-02-24T13:27:44.240Z,20.
2019-02-24T13:28:50.548Z,2
2019-02-24T13:29:45.323Z,22.
2019-02-24T13:30:44.215Z,20.
2019-02-24T13:31:44.197Z,1
2019-02-24T13:32:44.193Z,1
2019-02-24T13:33:44.174Z,1
2019-02-24T13:34:44.166Z,1
2019-02-24T13:35:44.253Z,1
2019-02-24T13:36:44.147Z,1
2019-02-24T13:37:44.133Z,1
2019-02-24T13:38:44.469Z,1
2019-02-24T13:39:44.117Z,1
2019-02-24T13:40:45.193Z,1
2019-02-24T13:41:44.088Z,1
2019-02-24T13:42:44.079Z,1
2019-02-24T13:43:44.063Z,1
2019-02-24T13:44:44.058Z,1
2019-02-24T13:45:44.158Z,1
2019-02-24T13:46:44.034Z,1
2019-02-24T13:47:44.024Z,1
2019-02-24T13:48:44.016Z,1
2019-02-24T13:49:44.003Z,1